Latest Coastal Weather Observations for Mandurah

IDW60701

Issued at 1:42 am WST Friday 1 July 2016 (issued every 10 minutes, with the page automatically refreshed every 10 minutes)

About coastal observations | Map of coastal stations | Coastal observations for WA | Marine services | Other Formats
Station Details ID: 009977 Name: MANDURAH Lat: -32.52 Lon: 115.71 Height: 3.0 m
Data from the previous 72 hours. | See also: Recent months at Mandurah
Date/Time
WST
Temp
°C
Wind Pressure Rain since
9am
mm
Weather Cloud Vis
km
Sea
Height
m
Swell
Dir  Spd
kts
Gust
kts
hPa Trend Height
m
Period
s
Dir
01/01:30am 8.6 N 2 3 1027.0 - 0.0 - - - - - - -
01/01:00am 8.8 CALM 0 0 1027.2 - 0.0 - - - - - - -
01/12:30am 9.0 CALM 0 0 1027.1 - 0.0 - - - - - - -
01/12:00am 9.1 CALM 0 0 1027.3 - 0.0 - - - - - - -
 
Date/Time
WST
Temp
°C
Wind Pressure Rain since
9am
mm
Weather Cloud Vis
km
Sea
Height
m
Swell
Dir  Spd
kts
Gust
kts
hPa Trend Height
m
Period
s
Dir
30/11:30pm 9.8 CALM 0 0 1027.2 - 0.0 - - - - - - -
30/11:00pm 9.8 CALM 0 0 1027.5 - 0.0 - - - - - - -
30/10:30pm 9.8 CALM 0 0 1027.6 - 0.0 - - - - - - -
30/10:00pm 10.3 CALM 0 0 1027.6 - 0.0 - - - - - - -
30/09:30pm 10.6 CALM 0 0 1027.5 - 0.0 - - - - - - -
30/09:00pm 11.4 CALM 0 0 1027.4 - 0.0 - - - - - - -
30/08:30pm 11.5 CALM 0 0 1027.3 - 0.0 - - - - - - -
30/08:00pm 11.8 CALM 0 0 1027.1 - 0.0 - - - - - - -
30/07:30pm 12.3 CALM 0 0 1027.1 - 0.0 - - - - - - -
30/07:00pm 12.4 CALM 0 0 1026.8 - 0.0 - - - - - - -
30/06:30pm 13.0 CALM 0 0 1026.4 - 0.0 - - - - - - -
30/06:00pm 13.6 CALM 0 0 1026.0 - 0.0 - - - - - - -
30/05:30pm 14.5 CALM 0 0 1025.6 - 0.0 - - - - - - -
30/05:00pm 15.7 WNW 1 2 1025.4 - 0.0 - - - - - - -
30/04:30pm 16.0 WNW 3 3 1025.2 - 0.0 - - - - - - -
30/04:00pm 16.4 NNW 3 4 1024.9 - 0.0 - - - - - - -
30/03:30pm 16.5 NNW 4 5 1024.8 - 0.0 - - - - - - -
30/03:00pm 16.8 NW 3 3 1024.7 - 0.0 - - - - - - -
30/02:30pm 16.9 NW 4 5 1024.8 - 0.0 - - - - - - -
30/02:00pm 17.5 NW 3 4 1024.8 - 0.0 - - - - - - -
30/01:30pm 18.1 NW 3 4 1025.1 - 0.0 - - - - - - -
30/01:00pm 17.5 NW 4 5 1025.4 - 0.0 - - - - - - -
30/12:30pm 17.2 NNW 4 6 1025.6 - 0.0 - - - - - - -
30/12:00pm 17.4 ESE 2 3 1026.3 - 0.0 - - - - - - -
30/11:30am 16.6 ESE 1 2 1026.6 - 0.0 - - - - - - -
30/11:00am 16.1 ESE 2 3 1027.0 - 0.0 - - - - - - -
30/10:30am 15.6 ESE 2 3 1027.1 - 0.0 - - - - - - -
30/10:00am 14.6 ESE 3 3 1027.1 - 0.0 - - - - - - -
30/09:30am 13.4 ESE 2 3 1027.1 - 0.0 - - - - - - -
30/09:00am 10.1 CALM 0 0 1026.8 - 0.0 - - - - - - -
30/08:30am 8.9 CALM 0 0 1026.5 - 0.0 - - - - - - -
30/08:00am 8.2 CALM 0 1 1026.3 - 0.0 - - - - - - -
30/07:30am 7.9 SE 2 3 1026.0 - 0.0 - - - - - - -
30/07:00am 8.3 SE 2 3 1025.8 - 0.0 - - - - - - -
30/06:30am 8.2 CALM 0 0 1025.5 - 0.0 - - - - - - -
30/06:00am 8.6 SSE 1 2 1025.4 - 0.0 - - - - - - -
30/05:30am 9.3 CALM 0 0 1025.3 - 0.0 - - - - - - -
30/05:00am 9.9 SE 2 3 1025.1 - 0.0 - - - - - - -
30/04:30am 9.6 SE 2 3 1024.9 - 0.0 - - - - - - -
30/04:00am 9.6 SE 2 3 1024.8 - 0.0 - - - - - - -
30/03:30am 9.8 SE 2 3 1024.8 - 0.0 - - - - - - -
30/03:00am 9.7 SE 4 5 1024.7 - 0.0 - - - - - - -
30/02:30am 9.4 SSW 2 3 1024.8 - 0.0 - - - - - - -
30/02:00am 9.8 SSW 1 2 1024.8 - 0.0 - - - - - - -
30/01:30am 9.7 SSW 1 1 1024.5 - 0.0 - - - - - - -
30/01:00am 9.9 SSW 2 2 1024.4 - 0.0 - - - - - - -
30/12:30am 10.2 SSW 1 2 1024.5 - 0.0 - - - - - - -
30/12:00am 10.7 SSW 2 2 1024.4 - 0.0 - - - - - - -
 
Date/Time
WST
Temp
°C
Wind Pressure Rain since
9am
mm
Weather Cloud Vis
km
Sea
Height
m
Swell
Dir  Spd
kts
Gust
kts
hPa Trend Height
m
Period
s
Dir
29/11:30pm 10.3 SSW 2 3 1024.2 - 0.0 - - - - - - -
29/11:00pm 10.6 CALM 0 0 1024.1 - 0.0 - - - - - - -
29/10:30pm 10.6 CALM 0 0 1024.1 - 0.0 - - - - - - -
29/10:00pm 11.0 CALM 0 0 1023.9 - 0.0 - - - - - - -
29/09:30pm 11.2 CALM 0 0 1023.7 - 0.0 - - - - - - -
29/09:00pm 11.6 CALM 0 0 1023.4 - 0.0 - - - - - - -
29/08:30pm 12.2 CALM 0 1 1023.1 - 0.0 - - - - - - -
29/08:00pm 12.6 CALM 0 0 1022.8 - 0.0 - - - - - - -
29/07:30pm 13.2 CALM 0 1 1022.3 - 0.0 - - - - - - -
29/07:00pm 14.0 SSW 2 2 1022.0 - 0.0 - - - - - - -
29/06:30pm 14.3 SSW 2 3 1021.8 - 0.0 - - - - - - -
29/06:00pm 14.7 SSW 2 3 1021.3 - 0.0 - - - - - - -
29/05:30pm 15.5 SSW 3 5 1020.8 - 0.0 - - - - - - -
29/05:00pm 16.3 SSW 5 9 1020.6 - 0.0 - - - - - - -
29/04:30pm 16.7 SSW 6 9 1020.2 - 0.0 - - - - - - -
29/04:00pm 16.9 SSW 7 12 1019.9 - 0.0 - - - - - - -
29/03:30pm 17.1 SSW 8 12 1019.6 - 0.0 - - - - - - -
29/03:00pm 17.5 SSW 9 14 1019.2 - 0.0 - - - - - - -
29/02:30pm 17.9 SW 9 13 1018.7 - 0.0 - - - - - - -
29/02:00pm 17.9 SW 10 16 1018.6 - 0.0 - - - - - - -
29/01:30pm 17.9 SW 9 14 1018.4 - 0.0 - - - - - - -
29/01:00pm 18.2 SW 9 15 1018.6 - 0.0 - - - - - - -
29/12:30pm 18.0 SW 10 15 1018.6 - 0.0 - - - - - - -
29/12:00pm 17.9 SW 9 14 1018.6 - 0.0 - - - - - - -
29/11:30am 17.7 SW 10 15 1018.5 - 0.0 - - - - - - -
29/11:00am 17.9 SW 7 12 1018.5 - 0.0 - - - - - - -
29/10:30am 17.4 SW 8 11 1018.4 - 0.0 - - - - - - -
29/10:00am 17.3 SW 6 11 1018.3 - 0.0 - - - - - - -
29/09:30am 17.0 SSW 8 13 1018.0 - 0.0 - - - - - - -
29/09:00am 16.4 SW 7 11 1017.6 - 31.6 - - - - - - -
29/08:30am 16.0 SSW 6 10 1017.2 - 31.6 - - - - - - -
29/08:00am 15.4 SW 6 10 1016.9 - 31.6 - - - - - - -
29/07:30am 15.5 SSW 6 8 1016.3 - 31.6 - - - - - - -
29/07:00am 15.8 SW 8 11 1015.7 - 31.6 - - - - - - -
29/06:30am 15.9 WSW 9 13 1015.3 - 31.6 - - - - - - -
29/06:00am 16.2 WSW 8 13 1014.7 - 31.6 - - - - - - -
29/05:30am 16.1 WSW 8 13 1014.2 - 31.6 - - - - - - -
29/05:00am 16.0 WSW 7 11 1014.0 - 31.6 - - - - - - -
29/04:30am 15.8 WSW 7 12 1013.9 - 31.6 - - - - - - -
29/04:00am 15.7 WSW 9 13 1013.7 - 31.6 - - - - - - -
29/03:30am 15.4 WSW 8 12 1013.7 - 31.6 - - - - - - -
29/03:00am 13.9 WSW 4 6 1013.7 - 31.6 Recent precip. - - - - - -
29/02:30am 12.9 WSW 5 9 1013.6 - 31.6 - - - - - - -
29/02:12am 13.2 WSW 12 30 1013.6 - 31.2 - - - - - - -
29/02:09am 14.9 W 8 30 1013.7 - 29.4 - - - - - - -
29/02:00am 15.6 W 3 5 1013.2 - 29.2 - - - - - - -
29/01:30am 15.4 WSW 4 6 1013.2 - 29.2 - - - - - - -
29/01:00am 15.0 SW 2 5 1013.3 - 29.2 - - - - - - -
29/12:30am 15.5 SW 2 3 1013.2 - 29.2 - - - - - - -
29/12:00am 15.8 SW 4 6 1013.2 - 29.2 - - - - - - -
 
Date/Time
WST
Temp
°C
Wind Pressure Rain since
9am
mm
Weather Cloud Vis
km
Sea
Height
m
Swell
Dir  Spd
kts
Gust
kts
hPa Trend Height
m
Period
s
Dir
28/11:30pm 15.7 SW 3 5 1013.3 - 29.2 - - - - - - -
28/11:00pm 16.1 SSW 4 7 1013.1 - 29.2 - - - - - - -
28/10:30pm 16.4 SSW 4 7 1012.8 - 29.2 - - - - - - -
28/10:00pm 16.2 SW 4 8 1012.7 - 29.2 - - - - - - -
28/09:30pm 16.5 SW 5 7 1012.7 - 29.2 - - - - - - -
28/09:00pm 16.6 WSW 6 8 1012.8 - 29.2 - - - - - - -
28/08:30pm 16.7 WSW 5 8 1012.6 - 29.2 - - - - - - -
28/08:00pm 16.6 WSW 4 6 1012.5 - 29.2 - - - - - - -
28/07:30pm 16.5 WSW 6 9 1012.3 - 29.2 - - - - - - -
28/07:00pm 16.6 WSW 6 10 1012.0 - 29.2 - - - - - - -
28/06:30pm 16.8 WSW 6 9 1011.8 - 29.2 - - - - - - -
28/06:00pm 16.8 W 6 9 1011.5 - 29.2 Recent precip. - - - - - -
28/05:30pm 16.6 W 10 14 1011.1 - 29.2 - - - - - - -
28/05:00pm 17.0 NW 8 9 1010.8 - 27.4 - - - - - - -
28/04:30pm 17.2 WNW 9 12 1010.6 - 27.4 - - - - - - -
28/04:00pm 17.5 WNW 10 12 1010.6 - 27.4 - - - - - - -
28/03:30pm 17.6 NW 9 10 1010.5 - 27.4 - - - - - - -
28/03:00pm 17.5 WNW 8 10 1010.5 - 27.4 - - - - - - -
28/02:30pm 17.9 NW 8 9 1010.5 - 27.4 - - - - - - -
28/02:00pm 17.0 WNW 7 9 1010.4 - 27.4 - - - - - - -
28/01:30pm 16.4 WNW 7 9 1010.4 - 27.4 - - - - - - -
28/01:00pm 15.5 NW 6 7 1010.7 - 27.2 - - - - - - -
28/12:30pm 15.3 W 5 8 1011.1 - 25.6 - - - - - - -
28/12:00pm 15.2 W 6 9 1011.8 - 19.6 Rain - - - - - -
28/11:30am 15.3 W 10 18 1012.3 - 13.8 - - - - - - -
28/11:00am 14.7 N 10 14 1011.9 - 6.6 - - - - - - -
28/10:30am 14.9 N 18 21 1011.8 - 3.6 - - - - - - -
28/10:00am 13.5 NNE 12 16 1011.7 - 3.6 - - - - - - -
28/09:30am 13.4 NNE 10 14 1011.9 - 0.0 - - - - - - -
28/09:00am 13.6 NNE 13 17 1012.0 - 8.2 Rain - - - - - -
28/08:30am 13.4 NNE 15 20 1012.0 - 8.0 - - - - - - -
28/08:00am 13.3 NNE 16 19 1012.0 - 8.0 - - - - - - -
28/07:30am 13.5 NNE 16 20 1011.7 - 8.0 - - - - - - -
28/07:00am 12.9 NNE 16 18 1011.8 - 8.0 - - - - - - -
28/06:30am 12.7 NNE 14 18 1011.7 - 8.0 - - - - - - -
28/06:00am 11.9 NNE 7 11 1011.8 - 7.2 Rain - - - - - -
28/05:30am 12.4 NNE 10 15 1011.6 - 1.0 - - - - - - -
28/05:00am 13.3 NNE 16 20 1011.5 - 0.0 - - - - - - -
28/04:30am 13.8 NNE 14 17 1011.4 - 0.0 - - - - - - -
28/04:00am 13.4 NNE 12 15 1011.7 - 0.0 - - - - - - -
28/03:30am 13.3 NNE 12 16 1011.9 - 0.0 - - - - - - -
28/03:00am 12.7 NNE 12 15 1012.2 - 0.0 - - - - - - -
28/02:30am 12.7 NNE 11 15 1012.4 - 0.0 - - - - - - -
28/02:00am 12.9 NNE 11 15 1012.5 - 0.0 - - - - - - -

Other Formats:

Comma delimited format used in spreadsheet applications
http://www.bom.gov.au/fwo/IDW60701/IDW60701.94605.axf

JavaScript Object Notation format (JSON) in row-major order
http://www.bom.gov.au/fwo/IDW60701/IDW60701.94605.json